sensor_id;sensor_type;location;lat;lon;timestamp;P1;durP1;ratioP1;P2;durP2;ratioP2
12451;SDS011;72521;48.924;12.204;2024-01-30T00:00:01;22.30;;;13.47;;
12451;SDS011;72521;48.924;12.204;2024-01-30T00:05:07;26.10;;;14.97;;
12451;SDS011;72521;48.924;12.204;2024-01-30T00:10:11;21.70;;;14.53;;
12451;SDS011;72521;48.924;12.204;2024-01-30T00:15:16;28.00;;;15.43;;
12451;SDS011;72521;48.924;12.204;2024-01-30T00:20:21;22.13;;;14.13;;
12451;SDS011;72521;48.924;12.204;2024-01-30T00:25:25;23.87;;;14.83;;
12451;SDS011;72521;48.924;12.204;2024-01-30T00:30:30;29.20;;;16.07;;
12451;SDS011;72521;48.924;12.204;2024-01-30T00:35:35;23.80;;;14.50;;
12451;SDS011;72521;48.924;12.204;2024-01-30T00:40:39;20.23;;;13.80;;
12451;SDS011;72521;48.924;12.204;2024-01-30T00:45:43;25.10;;;14.77;;
12451;SDS011;72521;48.924;12.204;2024-01-30T00:50:49;27.07;;;15.87;;
12451;SDS011;72521;48.924;12.204;2024-01-30T00:55:53;26.50;;;15.63;;
12451;SDS011;72521;48.924;12.204;2024-01-30T01:00:57;22.97;;;15.77;;
12451;SDS011;72521;48.924;12.204;2024-01-30T01:06:02;23.90;;;15.50;;
12451;SDS011;72521;48.924;12.204;2024-01-30T01:11:07;26.77;;;16.67;;
12451;SDS011;72521;48.924;12.204;2024-01-30T01:16:11;25.03;;;15.27;;
12451;SDS011;72521;48.924;12.204;2024-01-30T01:21:16;27.10;;;16.07;;
12451;SDS011;72521;48.924;12.204;2024-01-30T01:26:20;28.27;;;16.07;;
12451;SDS011;72521;48.924;12.204;2024-01-30T01:31:25;22.57;;;15.37;;
12451;SDS011;72521;48.924;12.204;2024-01-30T01:36:33;26.30;;;16.20;;
12451;SDS011;72521;48.924;12.204;2024-01-30T01:41:36;23.93;;;14.97;;
12451;SDS011;72521;48.924;12.204;2024-01-30T01:46:40;29.60;;;17.03;;
12451;SDS011;72521;48.924;12.204;2024-01-30T01:51:47;29.57;;;17.30;;
12451;SDS011;72521;48.924;12.204;2024-01-30T01:56:53;30.77;;;18.33;;
12451;SDS011;72521;48.924;12.204;2024-01-30T02:01:57;29.07;;;17.97;;
12451;SDS011;72521;48.924;12.204;2024-01-30T02:07:05;31.90;;;19.97;;
12451;SDS011;72521;48.924;12.204;2024-01-30T02:12:09;29.63;;;17.83;;
12451;SDS011;72521;48.924;12.204;2024-01-30T02:17:13;32.27;;;17.67;;
12451;SDS011;72521;48.924;12.204;2024-01-30T02:22:20;30.83;;;18.40;;
12451;SDS011;72521;48.924;12.204;2024-01-30T02:27:25;31.77;;;18.30;;
12451;SDS011;72521;48.924;12.204;2024-01-30T02:32:29;26.10;;;17.30;;
12451;SDS011;72521;48.924;12.204;2024-01-30T02:37:34;29.17;;;17.40;;
12451;SDS011;72521;48.924;12.204;2024-01-30T02:42:39;29.63;;;16.87;;
12451;SDS011;72521;48.924;12.204;2024-01-30T02:47:43;31.60;;;18.47;;
12451;SDS011;72521;48.924;12.204;2024-01-30T02:52:49;33.33;;;19.10;;
12451;SDS011;72521;48.924;12.204;2024-01-30T02:57:53;30.47;;;19.03;;
12451;SDS011;72521;48.924;12.204;2024-01-30T03:02:58;33.17;;;18.57;;
12451;SDS011;72521;48.924;12.204;2024-01-30T03:08:03;31.10;;;19.00;;
12451;SDS011;72521;48.924;12.204;2024-01-30T03:13:08;30.37;;;17.87;;
12451;SDS011;72521;48.924;12.204;2024-01-30T03:18:12;34.00;;;18.57;;
12451;SDS011;72521;48.924;12.204;2024-01-30T03:23:18;32.73;;;18.60;;
12451;SDS011;72521;48.924;12.204;2024-01-30T03:28:22;31.07;;;18.60;;
12451;SDS011;72521;48.924;12.204;2024-01-30T03:33:26;26.57;;;16.03;;
12451;SDS011;72521;48.924;12.204;2024-01-30T03:38:32;30.93;;;18.27;;
12451;SDS011;72521;48.924;12.204;2024-01-30T03:43:35;32.70;;;17.23;;
12451;SDS011;72521;48.924;12.204;2024-01-30T03:48:40;29.07;;;17.37;;
12451;SDS011;72521;48.924;12.204;2024-01-30T03:53:45;29.70;;;17.27;;
12451;SDS011;72521;48.924;12.204;2024-01-30T03:58:49;27.03;;;16.93;;
12451;SDS011;72521;48.924;12.204;2024-01-30T04:03:53;34.87;;;19.00;;
12451;SDS011;72521;48.924;12.204;2024-01-30T04:09:00;27.47;;;17.67;;
12451;SDS011;72521;48.924;12.204;2024-01-30T04:14:05;30.73;;;18.17;;
12451;SDS011;72521;48.924;12.204;2024-01-30T04:19:10;35.17;;;18.60;;
12451;SDS011;72521;48.924;12.204;2024-01-30T04:24:15;30.53;;;17.50;;
12451;SDS011;72521;48.924;12.204;2024-01-30T04:29:20;30.80;;;16.53;;
12451;SDS011;72521;48.924;12.204;2024-01-30T04:34:24;26.47;;;16.47;;
12451;SDS011;72521;48.924;12.204;2024-01-30T04:39:30;27.13;;;17.63;;
12451;SDS011;72521;48.924;12.204;2024-01-30T04:44:35;31.97;;;17.53;;
12451;SDS011;72521;48.924;12.204;2024-01-30T04:49:39;26.47;;;16.23;;
12451;SDS011;72521;48.924;12.204;2024-01-30T04:54:45;30.83;;;17.60;;
12451;SDS011;72521;48.924;12.204;2024-01-30T04:59:49;29.10;;;16.07;;
12451;SDS011;72521;48.924;12.204;2024-01-30T05:04:53;28.57;;;16.17;;
12451;SDS011;72521;48.924;12.204;2024-01-30T05:09:59;28.00;;;17.70;;
12451;SDS011;72521;48.924;12.204;2024-01-30T05:15:08;31.63;;;18.53;;
12451;SDS011;72521;48.924;12.204;2024-01-30T05:20:12;29.37;;;17.77;;
12451;SDS011;72521;48.924;12.204;2024-01-30T05:25:18;29.57;;;18.43;;
12451;SDS011;72521;48.924;12.204;2024-01-30T05:30:22;32.70;;;18.40;;
12451;SDS011;72521;48.924;12.204;2024-01-30T05:35:26;34.23;;;19.80;;
12451;SDS011;72521;48.924;12.204;2024-01-30T05:40:32;33.87;;;19.10;;
12451;SDS011;72521;48.924;12.204;2024-01-30T05:45:36;31.57;;;18.33;;
12451;SDS011;72521;48.924;12.204;2024-01-30T05:50:41;34.07;;;20.17;;
12451;SDS011;72521;48.924;12.204;2024-01-30T05:55:46;30.63;;;18.93;;
12451;SDS011;72521;48.924;12.204;2024-01-30T06:00:50;32.93;;;19.03;;
12451;SDS011;72521;48.924;12.204;2024-01-30T06:05:55;39.33;;;21.33;;
12451;SDS011;72521;48.924;12.204;2024-01-30T06:11:00;30.73;;;18.17;;
12451;SDS011;72521;48.924;12.204;2024-01-30T06:16:08;31.20;;;19.33;;
12451;SDS011;72521;48.924;12.204;2024-01-30T06:21:13;38.93;;;20.83;;
12451;SDS011;72521;48.924;12.204;2024-01-30T06:26:18;34.63;;;22.87;;
12451;SDS011;72521;48.924;12.204;2024-01-30T06:31:22;29.87;;;18.93;;
12451;SDS011;72521;48.924;12.204;2024-01-30T06:36:26;32.87;;;18.23;;
12451;SDS011;72521;48.924;12.204;2024-01-30T06:41:32;32.10;;;16.63;;
12451;SDS011;72521;48.924;12.204;2024-01-30T06:46:36;30.93;;;18.47;;
12451;SDS011;72521;48.924;12.204;2024-01-30T06:51:40;27.03;;;17.43;;
12451;SDS011;72521;48.924;12.204;2024-01-30T06:56:46;33.40;;;18.00;;
12451;SDS011;72521;48.924;12.204;2024-01-30T07:01:50;31.97;;;19.17;;
12451;SDS011;72521;48.924;12.204;2024-01-30T07:06:54;28.70;;;18.43;;
12451;SDS011;72521;48.924;12.204;2024-01-30T07:12:00;37.63;;;19.40;;
12451;SDS011;72521;48.924;12.204;2024-01-30T07:17:05;30.53;;;18.07;;
12451;SDS011;72521;48.924;12.204;2024-01-30T07:22:09;31.33;;;17.50;;
12451;SDS011;72521;48.924;12.204;2024-01-30T07:27:14;30.43;;;18.83;;
12451;SDS011;72521;48.924;12.204;2024-01-30T07:32:19;30.43;;;18.37;;
12451;SDS011;72521;48.924;12.204;2024-01-30T07:37:24;33.03;;;19.47;;
12451;SDS011;72521;48.924;12.204;2024-01-30T07:42:29;34.27;;;20.37;;
12451;SDS011;72521;48.924;12.204;2024-01-30T07:47:33;34.27;;;20.60;;
12451;SDS011;72521;48.924;12.204;2024-01-30T07:52:37;36.90;;;21.97;;
12451;SDS011;72521;48.924;12.204;2024-01-30T07:57:42;42.23;;;24.63;;
12451;SDS011;72521;48.924;12.204;2024-01-30T08:02:46;50.80;;;28.70;;
12451;SDS011;72521;48.924;12.204;2024-01-30T08:07:51;54.50;;;32.87;;
12451;SDS011;72521;48.924;12.204;2024-01-30T08:12:56;65.00;;;37.83;;
12451;SDS011;72521;48.924;12.204;2024-01-30T08:18:01;54.80;;;31.83;;
12451;SDS011;72521;48.924;12.204;2024-01-30T08:23:06;62.80;;;38.53;;
12451;SDS011;72521;48.924;12.204;2024-01-30T08:28:12;74.70;;;42.10;;
12451;SDS011;72521;48.924;12.204;2024-01-30T08:33:20;64.90;;;39.70;;
12451;SDS011;72521;48.924;12.204;2024-01-30T08:38:24;61.17;;;39.50;;
12451;SDS011;72521;48.924;12.204;2024-01-30T08:43:29;53.97;;;35.30;;
12451;SDS011;72521;48.924;12.204;2024-01-30T08:48:33;39.63;;;27.42;;
12451;SDS011;72521;48.924;12.204;2024-01-30T08:53:39;26.15;;;19.30;;
12451;SDS011;72521;48.924;12.204;2024-01-30T08:58:44;28.95;;;19.98;;
12451;SDS011;72521;48.924;12.204;2024-01-30T09:03:48;29.00;;;18.05;;
12451;SDS011;72521;48.924;12.204;2024-01-30T09:08:54;19.40;;;14.00;;
12451;SDS011;72521;48.924;12.204;2024-01-30T09:14:01;25.60;;;16.50;;
12451;SDS011;72521;48.924;12.204;2024-01-30T09:19:05;22.13;;;15.70;;
12451;SDS011;72521;48.924;12.204;2024-01-30T09:24:09;25.58;;;16.23;;
12451;SDS011;72521;48.924;12.204;2024-01-30T09:29:14;19.97;;;15.27;;
12451;SDS011;72521;48.924;12.204;2024-01-30T09:34:19;23.40;;;15.97;;
12451;SDS011;72521;48.924;12.204;2024-01-30T09:39:23;20.83;;;15.57;;
12451;SDS011;72521;48.924;12.204;2024-01-30T09:44:29;21.60;;;15.57;;
12451;SDS011;72521;48.924;12.204;2024-01-30T09:49:33;23.35;;;15.57;;
12451;SDS011;72521;48.924;12.204;2024-01-30T09:54:38;22.00;;;15.88;;
12451;SDS011;72521;48.924;12.204;2024-01-30T09:59:44;22.75;;;16.08;;
12451;SDS011;72521;48.924;12.204;2024-01-30T10:04:48;21.77;;;15.98;;
12451;SDS011;72521;48.924;12.204;2024-01-30T10:09:53;21.60;;;16.67;;
12451;SDS011;72521;48.924;12.204;2024-01-30T10:14:59;27.33;;;16.98;;
12451;SDS011;72521;48.924;12.204;2024-01-30T10:20:04;25.15;;;18.20;;
12451;SDS011;72521;48.924;12.204;2024-01-30T10:25:10;21.33;;;16.38;;
12451;SDS011;72521;48.924;12.204;2024-01-30T10:30:15;23.27;;;18.73;;
12451;SDS011;72521;48.924;12.204;2024-01-30T10:35:20;22.60;;;17.33;;
12451;SDS011;72521;48.924;12.204;2024-01-30T10:40:26;20.02;;;15.45;;
12451;SDS011;72521;48.924;12.204;2024-01-30T10:45:33;24.67;;;16.88;;
12451;SDS011;72521;48.924;12.204;2024-01-30T10:50:43;19.70;;;15.75;;
12451;SDS011;72521;48.924;12.204;2024-01-30T10:56:01;20.48;;;16.63;;
12451;SDS011;72521;48.924;12.204;2024-01-30T11:01:08;18.85;;;13.68;;
12451;SDS011;72521;48.924;12.204;2024-01-30T11:06:13;18.17;;;15.15;;
12451;SDS011;72521;48.924;12.204;2024-01-30T11:11:20;19.30;;;15.55;;
12451;SDS011;72521;48.924;12.204;2024-01-30T11:16:30;17.73;;;14.77;;
12451;SDS011;72521;48.924;12.204;2024-01-30T11:21:38;20.90;;;15.38;;
12451;SDS011;72521;48.924;12.204;2024-01-30T11:26:45;20.42;;;15.20;;
12451;SDS011;72521;48.924;12.204;2024-01-30T11:31:55;19.83;;;17.02;;
12451;SDS011;72521;48.924;12.204;2024-01-30T11:37:03;19.90;;;16.30;;
12451;SDS011;72521;48.924;12.204;2024-01-30T11:42:12;18.50;;;15.48;;
12451;SDS011;72521;48.924;12.204;2024-01-30T11:47:18;19.77;;;15.35;;
12451;SDS011;72521;48.924;12.204;2024-01-30T11:52:22;18.67;;;15.45;;
12451;SDS011;72521;48.924;12.204;2024-01-30T11:57:27;18.50;;;15.07;;
12451;SDS011;72521;48.924;12.204;2024-01-30T12:02:33;22.92;;;16.80;;
12451;SDS011;72521;48.924;12.204;2024-01-30T12:07:37;21.13;;;16.80;;
12451;SDS011;72521;48.924;12.204;2024-01-30T12:12:41;21.75;;;16.65;;
12451;SDS011;72521;48.924;12.204;2024-01-30T12:17:48;20.65;;;16.40;;
12451;SDS011;72521;48.924;12.204;2024-01-30T12:22:52;18.77;;;16.77;;
12451;SDS011;72521;48.924;12.204;2024-01-30T12:27:57;20.13;;;16.75;;
12451;SDS011;72521;48.924;12.204;2024-01-30T12:33:03;20.40;;;15.60;;
12451;SDS011;72521;48.924;12.204;2024-01-30T12:38:10;18.33;;;15.13;;
12451;SDS011;72521;48.924;12.204;2024-01-30T12:43:14;21.75;;;17.25;;
12451;SDS011;72521;48.924;12.204;2024-01-30T12:48:33;19.20;;;16.10;;
12451;SDS011;72521;48.924;12.204;2024-01-30T12:53:38;19.65;;;16.83;;
12451;SDS011;72521;48.924;12.204;2024-01-30T12:58:43;23.20;;;17.27;;
12451;SDS011;72521;48.924;12.204;2024-01-30T13:03:54;22.85;;;17.80;;
12451;SDS011;72521;48.924;12.204;2024-01-30T13:08:59;19.98;;;16.05;;
12451;SDS011;72521;48.924;12.204;2024-01-30T13:14:03;20.05;;;15.68;;
12451;SDS011;72521;48.924;12.204;2024-01-30T13:19:08;21.40;;;16.30;;
12451;SDS011;72521;48.924;12.204;2024-01-30T13:24:13;25.17;;;17.65;;
12451;SDS011;72521;48.924;12.204;2024-01-30T13:29:18;23.63;;;17.38;;
12451;SDS011;72521;48.924;12.204;2024-01-30T13:34:23;23.05;;;16.92;;
12451;SDS011;72521;48.924;12.204;2024-01-30T13:39:28;17.75;;;14.82;;
12451;SDS011;72521;48.924;12.204;2024-01-30T13:44:39;22.50;;;16.55;;
12451;SDS011;72521;48.924;12.204;2024-01-30T13:49:46;20.60;;;16.30;;
12451;SDS011;72521;48.924;12.204;2024-01-30T13:54:50;18.65;;;14.82;;
12451;SDS011;72521;48.924;12.204;2024-01-30T13:59:55;22.15;;;16.33;;
12451;SDS011;72521;48.924;12.204;2024-01-30T14:05:00;20.05;;;16.08;;
12451;SDS011;72521;48.924;12.204;2024-01-30T14:10:06;22.88;;;17.25;;
12451;SDS011;72521;48.924;12.204;2024-01-30T14:15:16;20.52;;;16.17;;
12451;SDS011;72521;48.924;12.204;2024-01-30T14:20:31;21.05;;;16.38;;
12451;SDS011;72521;48.924;12.204;2024-01-30T14:25:35;22.55;;;16.25;;
12451;SDS011;72521;48.924;12.204;2024-01-30T14:30:39;20.45;;;16.48;;
12451;SDS011;72521;48.924;12.204;2024-01-30T14:35:44;22.77;;;17.50;;
12451;SDS011;72521;48.924;12.204;2024-01-30T14:40:48;24.25;;;18.50;;
12451;SDS011;72521;48.924;12.204;2024-01-30T14:45:52;19.30;;;15.57;;
12451;SDS011;72521;48.924;12.204;2024-01-30T14:50:58;22.27;;;16.65;;
12451;SDS011;72521;48.924;12.204;2024-01-30T14:56:02;22.80;;;17.50;;
12451;SDS011;72521;48.924;12.204;2024-01-30T15:01:06;24.90;;;17.55;;
12451;SDS011;72521;48.924;12.204;2024-01-30T15:06:12;23.05;;;16.48;;
12451;SDS011;72521;48.924;12.204;2024-01-30T15:11:17;22.17;;;17.00;;
12451;SDS011;72521;48.924;12.204;2024-01-30T15:16:21;24.42;;;18.02;;
12451;SDS011;72521;48.924;12.204;2024-01-30T15:21:27;23.35;;;17.25;;
12451;SDS011;72521;48.924;12.204;2024-01-30T15:26:31;23.83;;;17.40;;
12451;SDS011;72521;48.924;12.204;2024-01-30T15:31:35;23.85;;;17.90;;
12451;SDS011;72521;48.924;12.204;2024-01-30T15:36:42;23.33;;;18.17;;
12451;SDS011;72521;48.924;12.204;2024-01-30T15:41:46;25.95;;;18.75;;
12451;SDS011;72521;48.924;12.204;2024-01-30T15:46:50;22.98;;;18.13;;
12451;SDS011;72521;48.924;12.204;2024-01-30T15:51:55;24.10;;;19.10;;
12451;SDS011;72521;48.924;12.204;2024-01-30T15:57:07;23.67;;;18.13;;
12451;SDS011;72521;48.924;12.204;2024-01-30T16:02:11;24.63;;;17.92;;
12451;SDS011;72521;48.924;12.204;2024-01-30T16:07:42;23.50;;;17.67;;
12451;SDS011;72521;48.924;12.204;2024-01-30T16:13:10;25.03;;;17.90;;
12451;SDS011;72521;48.924;12.204;2024-01-30T16:18:33;25.10;;;17.25;;
12451;SDS011;72521;48.924;12.204;2024-01-30T16:24:00;27.50;;;19.50;;
12451;SDS011;72521;48.924;12.204;2024-01-30T16:29:23;28.63;;;19.40;;
12451;SDS011;72521;48.924;12.204;2024-01-30T16:34:49;27.60;;;19.20;;
12451;SDS011;72521;48.924;12.204;2024-01-30T16:40:14;25.37;;;19.40;;
12451;SDS011;72521;48.924;12.204;2024-01-30T16:45:39;26.87;;;19.50;;
12451;SDS011;72521;48.924;12.204;2024-01-30T16:51:01;27.67;;;20.52;;
12451;SDS011;72521;48.924;12.204;2024-01-30T16:56:25;35.90;;;23.60;;
12451;SDS011;72521;48.924;12.204;2024-01-30T17:01:54;33.07;;;23.07;;
12451;SDS011;72521;48.924;12.204;2024-01-30T17:07:20;30.63;;;21.50;;
12451;SDS011;72521;48.924;12.204;2024-01-30T17:12:50;30.47;;;21.57;;
12451;SDS011;72521;48.924;12.204;2024-01-30T17:18:20;33.30;;;24.53;;
12451;SDS011;72521;48.924;12.204;2024-01-30T17:23:45;35.50;;;25.23;;
12451;SDS011;72521;48.924;12.204;2024-01-30T17:29:19;30.77;;;21.70;;
12451;SDS011;72521;48.924;12.204;2024-01-30T17:34:47;37.07;;;26.27;;
12451;SDS011;72521;48.924;12.204;2024-01-30T17:40:16;37.77;;;25.17;;
12451;SDS011;72521;48.924;12.204;2024-01-30T17:45:43;33.87;;;24.97;;
12451;SDS011;72521;48.924;12.204;2024-01-30T17:51:11;35.00;;;23.90;;
12451;SDS011;72521;48.924;12.204;2024-01-30T17:56:37;38.00;;;25.40;;
12451;SDS011;72521;48.924;12.204;2024-01-30T18:01:45;33.73;;;24.40;;
12451;SDS011;72521;48.924;12.204;2024-01-30T18:06:50;38.97;;;26.17;;
12451;SDS011;72521;48.924;12.204;2024-01-30T18:11:57;42.27;;;26.10;;
12451;SDS011;72521;48.924;12.204;2024-01-30T18:17:01;38.67;;;24.77;;
12451;SDS011;72521;48.924;12.204;2024-01-30T18:22:06;41.80;;;26.77;;
12451;SDS011;72521;48.924;12.204;2024-01-30T18:27:12;42.60;;;27.27;;
12451;SDS011;72521;48.924;12.204;2024-01-30T18:32:16;47.17;;;27.33;;
12451;SDS011;72521;48.924;12.204;2024-01-30T18:37:20;44.17;;;26.97;;
12451;SDS011;72521;48.924;12.204;2024-01-30T18:42:26;41.50;;;26.73;;
12451;SDS011;72521;48.924;12.204;2024-01-30T18:47:30;45.00;;;27.37;;
12451;SDS011;72521;48.924;12.204;2024-01-30T18:52:35;44.03;;;27.17;;
12451;SDS011;72521;48.924;12.204;2024-01-30T18:57:40;43.23;;;27.53;;
12451;SDS011;72521;48.924;12.204;2024-01-30T19:02:44;41.63;;;27.07;;
12451;SDS011;72521;48.924;12.204;2024-01-30T19:07:48;43.80;;;27.73;;
12451;SDS011;72521;48.924;12.204;2024-01-30T19:12:54;43.97;;;27.13;;
12451;SDS011;72521;48.924;12.204;2024-01-30T19:17:58;45.67;;;27.43;;
12451;SDS011;72521;48.924;12.204;2024-01-30T19:23:03;51.07;;;28.93;;
12451;SDS011;72521;48.924;12.204;2024-01-30T19:28:10;49.10;;;28.37;;
12451;SDS011;72521;48.924;12.204;2024-01-30T19:33:15;42.13;;;27.87;;
12451;SDS011;72521;48.924;12.204;2024-01-30T19:38:19;43.03;;;28.73;;
12451;SDS011;72521;48.924;12.204;2024-01-30T19:43:29;43.77;;;27.50;;
12451;SDS011;72521;48.924;12.204;2024-01-30T19:48:35;51.87;;;28.77;;
12451;SDS011;72521;48.924;12.204;2024-01-30T19:53:40;45.03;;;28.87;;
12451;SDS011;72521;48.924;12.204;2024-01-30T19:58:47;44.10;;;29.67;;
12451;SDS011;72521;48.924;12.204;2024-01-30T20:03:53;51.27;;;30.33;;
12451;SDS011;72521;48.924;12.204;2024-01-30T20:08:58;50.03;;;31.53;;
12451;SDS011;72521;48.924;12.204;2024-01-30T20:14:04;52.40;;;32.73;;
12451;SDS011;72521;48.924;12.204;2024-01-30T20:19:09;54.37;;;32.73;;
12451;SDS011;72521;48.924;12.204;2024-01-30T20:24:14;56.40;;;33.93;;
12451;SDS011;72521;48.924;12.204;2024-01-30T20:29:20;52.20;;;32.47;;
12451;SDS011;72521;48.924;12.204;2024-01-30T20:34:27;52.77;;;32.93;;
12451;SDS011;72521;48.924;12.204;2024-01-30T20:39:33;55.00;;;33.77;;
12451;SDS011;72521;48.924;12.204;2024-01-30T20:44:40;50.10;;;32.77;;
12451;SDS011;72521;48.924;12.204;2024-01-30T20:49:44;50.53;;;31.47;;
12451;SDS011;72521;48.924;12.204;2024-01-30T20:54:48;51.27;;;31.10;;
12451;SDS011;72521;48.924;12.204;2024-01-30T20:59:55;50.70;;;32.40;;
12451;SDS011;72521;48.924;12.204;2024-01-30T21:04:59;41.90;;;29.23;;
12451;SDS011;72521;48.924;12.204;2024-01-30T21:10:04;45.33;;;29.57;;
12451;SDS011;72521;48.924;12.204;2024-01-30T21:15:11;47.00;;;29.57;;
12451;SDS011;72521;48.924;12.204;2024-01-30T21:20:17;41.63;;;27.47;;
12451;SDS011;72521;48.924;12.204;2024-01-30T21:25:23;41.50;;;28.07;;
12451;SDS011;72521;48.924;12.204;2024-01-30T21:30:28;42.17;;;27.90;;
12451;SDS011;72521;48.924;12.204;2024-01-30T21:35:33;43.73;;;28.27;;
12451;SDS011;72521;48.924;12.204;2024-01-30T21:40:37;48.07;;;29.37;;
12451;SDS011;72521;48.924;12.204;2024-01-30T21:45:43;43.77;;;27.67;;
12451;SDS011;72521;48.924;12.204;2024-01-30T21:50:47;47.30;;;29.37;;
12451;SDS011;72521;48.924;12.204;2024-01-30T21:55:51;41.50;;;28.40;;
12451;SDS011;72521;48.924;12.204;2024-01-30T22:00:57;40.07;;;26.77;;
12451;SDS011;72521;48.924;12.204;2024-01-30T22:06:01;41.63;;;27.70;;
12451;SDS011;72521;48.924;12.204;2024-01-30T22:11:06;43.70;;;25.77;;
12451;SDS011;72521;48.924;12.204;2024-01-30T22:16:14;43.83;;;29.07;;
12451;SDS011;72521;48.924;12.204;2024-01-30T22:21:18;43.33;;;27.80;;
12451;SDS011;72521;48.924;12.204;2024-01-30T22:26:23;45.10;;;29.10;;
12451;SDS011;72521;48.924;12.204;2024-01-30T22:31:28;41.07;;;28.23;;
12451;SDS011;72521;48.924;12.204;2024-01-30T22:36:35;42.40;;;27.37;;
12451;SDS011;72521;48.924;12.204;2024-01-30T22:41:39;40.07;;;26.17;;
12451;SDS011;72521;48.924;12.204;2024-01-30T22:46:45;39.83;;;27.10;;
12451;SDS011;72521;48.924;12.204;2024-01-30T22:51:49;42.43;;;27.90;;
12451;SDS011;72521;48.924;12.204;2024-01-30T22:56:53;46.70;;;28.80;;
12451;SDS011;72521;48.924;12.204;2024-01-30T23:01:59;46.80;;;29.77;;
12451;SDS011;72521;48.924;12.204;2024-01-30T23:07:03;44.47;;;27.60;;
12451;SDS011;72521;48.924;12.204;2024-01-30T23:12:08;48.27;;;28.43;;
12451;SDS011;72521;48.924;12.204;2024-01-30T23:17:13;40.30;;;27.57;;
12451;SDS011;72521;48.924;12.204;2024-01-30T23:22:17;44.37;;;28.57;;
12451;SDS011;72521;48.924;12.204;2024-01-30T23:27:22;42.93;;;27.70;;
12451;SDS011;72521;48.924;12.204;2024-01-30T23:32:27;37.57;;;26.07;;
12451;SDS011;72521;48.924;12.204;2024-01-30T23:37:43;44.73;;;28.30;;
12451;SDS011;72521;48.924;12.204;2024-01-30T23:42:48;41.90;;;27.57;;
12451;SDS011;72521;48.924;12.204;2024-01-30T23:47:54;41.23;;;27.43;;
12451;SDS011;72521;48.924;12.204;2024-01-30T23:52:58;40.63;;;25.80;;
12451;SDS011;72521;48.924;12.204;2024-01-30T23:58:03;40.97;;;27.87;;
